createdAt,value
2019-03-28T00:01:46.102Z,33.67
2019-03-28T00:04:12.090Z,36.60
2019-03-28T00:06:38.083Z,32.73
2019-03-28T00:09:07.728Z,38.70
2019-03-28T00:11:33.876Z,36.77
2019-03-28T00:14:00.016Z,37.37
2019-03-28T00:16:26.024Z,33.00
2019-03-28T00:18:52.016Z,31.07
2019-03-28T00:21:18.024Z,44.50
2019-03-28T00:23:51.739Z,39.23
2019-03-28T00:26:29.336Z,38.80
2019-03-28T00:28:45.924Z,33.77
2019-03-28T00:31:11.932Z,32.50
2019-03-28T00:33:37.916Z,39.03
2019-03-28T00:36:03.913Z,34.00
2019-03-28T00:38:29.904Z,37.80
2019-03-28T00:40:55.892Z,35.20
2019-03-28T00:43:22.171Z,36.97
2019-03-28T00:45:48.162Z,36.10
2019-03-28T00:48:14.154Z,35.37
2019-03-28T00:50:40.148Z,40.43
2019-03-28T00:53:06.398Z,38.87
2019-03-28T00:55:32.559Z,40.87
2019-03-28T00:57:58.560Z,38.53
2019-03-28T01:00:24.568Z,39.37
2019-03-28T01:02:50.568Z,39.73
2019-03-28T01:05:17.211Z,37.33
2019-03-28T01:07:43.499Z,40.67
2019-03-28T01:10:09.592Z,40.53
2019-03-28T01:12:35.584Z,40.97
2019-03-28T01:15:02.175Z,38.20
2019-03-28T01:17:28.197Z,35.40
2019-03-28T01:19:54.183Z,40.23
2019-03-28T01:22:20.200Z,40.03
2019-03-28T01:24:46.187Z,38.10
2019-03-28T01:27:12.192Z,42.20
2019-03-28T01:29:38.194Z,39.80
2019-03-28T01:32:04.187Z,41.20
2019-03-28T01:34:30.190Z,43.77
2019-03-28T01:36:56.380Z,46.00
2019-03-28T01:39:22.380Z,44.50
2019-03-28T01:41:48.367Z,39.20
2019-03-28T01:44:14.375Z,38.47
2019-03-28T01:46:40.568Z,38.80
2019-03-28T01:49:06.567Z,45.17
2019-03-28T01:51:32.566Z,36.27
2019-03-28T01:53:58.561Z,38.03
2019-03-28T01:56:25.148Z,38.50
2019-03-28T01:58:51.340Z,37.20
2019-03-28T02:01:17.332Z,39.03
2019-03-28T02:03:43.337Z,35.93
2019-03-28T02:06:09.396Z,40.90
2019-03-28T02:08:35.515Z,43.07
2019-03-28T02:11:01.813Z,42.50
2019-03-28T02:13:27.811Z,43.27
2019-03-28T02:15:53.801Z,41.80
2019-03-28T02:18:20.095Z,37.53
2019-03-28T02:20:46.095Z,42.30
2019-03-28T02:23:12.083Z,41.53
2019-03-28T02:25:38.091Z,40.07
2019-03-28T02:28:04.071Z,47.50
2019-03-28T02:30:31.196Z,36.93
2019-03-28T02:32:57.171Z,36.67
2019-03-28T02:35:23.172Z,40.77
2019-03-28T02:37:49.155Z,41.47
2019-03-28T02:40:15.250Z,43.00
2019-03-28T02:42:42.685Z,37.77
2019-03-28T02:45:08.795Z,37.17
2019-03-28T02:47:35.749Z,38.67
2019-03-28T02:50:03.901Z,38.63
2019-03-28T02:52:29.892Z,39.83
2019-03-28T02:54:55.897Z,36.80
2019-03-28T02:57:22.229Z,34.73
2019-03-28T02:59:48.701Z,36.07
2019-03-28T03:02:14.718Z,46.00
2019-03-28T03:04:40.695Z,38.77
2019-03-28T03:07:06.731Z,43.90
2019-03-28T03:09:32.797Z,38.60
2019-03-28T03:11:58.836Z,34.03
2019-03-28T03:14:24.837Z,39.33
2019-03-28T03:16:51.129Z,37.07
2019-03-28T03:19:17.145Z,34.17
2019-03-28T03:21:43.140Z,40.53
2019-03-28T03:24:09.146Z,43.43
2019-03-28T03:26:35.133Z,40.50
2019-03-28T03:29:01.157Z,42.30
2019-03-28T03:31:27.232Z,39.17
2019-03-28T03:33:53.513Z,38.90
2019-03-28T03:36:19.525Z,42.20
2019-03-28T03:38:45.756Z,40.93
2019-03-28T03:41:11.845Z,43.77
2019-03-28T03:43:37.857Z,35.07
2019-03-28T03:46:03.843Z,36.07
2019-03-28T03:48:29.850Z,38.03
2019-03-28T03:50:55.845Z,37.63
2019-03-28T03:53:21.848Z,35.00
2019-03-28T03:55:47.852Z,38.13
2019-03-28T03:58:16.551Z,40.43
2019-03-28T04:00:42.027Z,34.50
2019-03-28T04:03:08.024Z,39.03
2019-03-28T04:05:34.027Z,38.50
2019-03-28T04:08:00.316Z,45.37
2019-03-28T04:10:26.636Z,38.63
2019-03-28T04:12:52.624Z,38.47
2019-03-28T04:15:18.633Z,39.60
2019-03-28T04:17:44.640Z,42.57
2019-03-28T04:20:10.645Z,35.43
2019-03-28T04:22:37.098Z,36.23
2019-03-28T04:25:03.922Z,38.13
2019-03-28T04:27:29.897Z,38.40
2019-03-28T04:29:56.629Z,36.60
2019-03-28T04:32:22.699Z,35.63
2019-03-28T04:34:48.698Z,34.77
2019-03-28T04:37:14.948Z,38.37
2019-03-28T04:39:40.952Z,38.87
2019-03-28T04:42:06.959Z,36.43
2019-03-28T04:44:32.936Z,34.63
2019-03-28T04:46:58.941Z,35.87
2019-03-28T04:49:25.173Z,36.70
2019-03-28T04:51:51.172Z,33.27
2019-03-28T04:54:17.427Z,38.63
2019-03-28T04:56:43.656Z,38.37
2019-03-28T04:59:09.889Z,38.37
2019-03-28T05:01:36.219Z,34.33
2019-03-28T05:04:02.204Z,36.90
2019-03-28T05:06:28.203Z,34.70
2019-03-28T05:08:54.200Z,40.57
2019-03-28T05:11:20.202Z,38.57
2019-03-28T05:13:46.196Z,36.87
2019-03-28T05:16:12.216Z,33.90
2019-03-28T05:18:38.487Z,37.87
2019-03-28T05:21:04.817Z,32.40
2019-03-28T05:23:31.049Z,35.33
2019-03-28T05:25:57.276Z,38.53
2019-03-28T05:28:23.607Z,35.30
2019-03-28T05:30:49.588Z,31.70
2019-03-28T05:33:15.580Z,35.23
2019-03-28T05:35:41.569Z,39.80
2019-03-28T05:38:07.568Z,32.23
2019-03-28T05:40:33.854Z,42.83
2019-03-28T05:42:59.832Z,40.97
2019-03-28T05:45:25.833Z,33.33
2019-03-28T05:47:51.839Z,31.47
2019-03-28T05:50:18.138Z,35.53
2019-03-28T05:52:44.773Z,31.50
2019-03-28T05:55:10.772Z,36.97
2019-03-28T05:57:36.954Z,31.80
2019-03-28T06:00:04.451Z,34.63
2019-03-28T06:02:30.439Z,34.67
2019-03-28T06:04:56.444Z,32.93
2019-03-28T06:07:22.436Z,39.80
2019-03-28T06:09:48.448Z,34.13
2019-03-28T06:12:14.454Z,40.53
2019-03-28T06:14:40.732Z,34.77
2019-03-28T06:17:07.063Z,35.43
2019-03-28T06:19:33.074Z,36.03
2019-03-28T06:21:59.317Z,30.73
2019-03-28T06:24:25.336Z,32.77
2019-03-28T06:26:51.310Z,37.37
2019-03-28T06:29:23.658Z,31.07
2019-03-28T06:31:54.685Z,38.70
2019-03-28T06:34:13.225Z,34.97
2019-03-28T06:36:40.387Z,37.53
2019-03-28T06:39:06.640Z,40.10
2019-03-28T06:41:32.640Z,32.73
2019-03-28T06:43:58.649Z,31.77
2019-03-28T06:46:24.636Z,37.93
2019-03-28T06:48:50.632Z,36.27
2019-03-28T06:51:16.933Z,45.73
2019-03-28T06:53:43.165Z,36.03
2019-03-28T06:56:09.160Z,40.87
2019-03-28T06:58:35.152Z,37.43
2019-03-28T07:01:01.442Z,34.97
2019-03-28T07:03:27.427Z,40.93
2019-03-28T07:05:53.723Z,45.90
2019-03-28T07:08:19.788Z,42.87
2019-03-28T07:10:46.054Z,30.37
2019-03-28T07:13:12.052Z,31.83
2019-03-28T07:15:38.083Z,37.73
2019-03-28T07:18:04.082Z,35.60
2019-03-28T07:20:30.087Z,31.03
2019-03-28T07:22:56.085Z,36.53
2019-03-28T07:25:22.081Z,36.33
2019-03-28T07:27:48.080Z,43.57
2019-03-28T07:30:14.993Z,33.00
2019-03-28T07:32:43.325Z,35.33
2019-03-28T07:35:09.463Z,35.27
2019-03-28T07:37:35.456Z,29.93
2019-03-28T07:40:03.068Z,45.37
2019-03-28T07:42:29.060Z,42.33
2019-03-28T07:44:55.060Z,37.43
2019-03-28T07:47:21.060Z,38.63
2019-03-28T07:49:47.084Z,40.80
2019-03-28T07:52:13.096Z,36.83
2019-03-28T07:54:39.381Z,39.43
2019-03-28T07:57:05.685Z,39.07
2019-03-28T07:59:31.676Z,38.30
2019-03-28T08:01:57.700Z,42.53
2019-03-28T08:04:23.694Z,36.10
2019-03-28T08:06:50.524Z,45.90
2019-03-28T08:09:17.821Z,45.70
2019-03-28T08:11:43.928Z,36.33
2019-03-28T08:14:09.920Z,41.08
2019-03-28T08:16:35.928Z,43.73
2019-03-28T08:19:02.200Z,49.08
2019-03-28T08:21:28.439Z,42.15
2019-03-28T08:23:54.632Z,40.85
2019-03-28T08:26:21.200Z,38.90
2019-03-28T08:28:47.234Z,44.70
2019-03-28T08:31:13.342Z,41.20
2019-03-28T08:33:41.244Z,43.13
2019-03-28T08:36:07.236Z,40.40
2019-03-28T08:38:37.044Z,43.98
2019-03-28T08:41:03.294Z,40.10
2019-03-28T08:43:29.296Z,47.55
2019-03-28T08:45:55.301Z,45.20
2019-03-28T08:48:21.308Z,42.23
2019-03-28T08:50:47.325Z,40.00
2019-03-28T08:53:13.344Z,36.80
2019-03-28T08:55:39.351Z,38.23
2019-03-28T08:58:05.392Z,39.50
2019-03-28T09:00:35.291Z,61.87
2019-03-28T09:02:59.336Z,41.70
2019-03-28T09:05:25.403Z,36.13
2019-03-28T09:07:51.427Z,36.80
2019-03-28T09:10:17.444Z,36.93
2019-03-28T09:12:43.748Z,32.23
2019-03-28T09:15:10.594Z,30.27
2019-03-28T09:17:36.819Z,27.90
2019-03-28T09:20:07.451Z,26.90
2019-03-28T09:22:33.444Z,28.13
2019-03-28T09:24:59.708Z,24.87
2019-03-28T09:27:25.727Z,26.63
2019-03-28T09:29:51.736Z,27.37
2019-03-28T09:32:17.738Z,27.13
2019-03-28T09:34:44.016Z,28.23
2019-03-28T09:37:10.043Z,24.20
2019-03-28T09:39:36.113Z,25.30
2019-03-28T09:42:02.115Z,30.50
2019-03-28T09:44:28.112Z,21.60
2019-03-28T09:46:54.338Z,25.53
2019-03-28T09:49:20.356Z,22.57
2019-03-28T09:51:46.704Z,19.87
2019-03-28T09:54:12.712Z,19.40
2019-03-28T09:56:38.967Z,17.30
2019-03-28T09:59:04.942Z,21.33
2019-03-28T10:01:30.944Z,28.60
2019-03-28T10:03:56.948Z,22.63
2019-03-28T10:06:22.954Z,23.97
2019-03-28T10:08:48.939Z,22.67
2019-03-28T10:11:14.953Z,25.30
2019-03-28T10:13:40.940Z,26.43
2019-03-28T10:16:07.248Z,29.43
2019-03-28T10:18:33.243Z,32.53
2019-03-28T10:20:59.497Z,29.83
2019-03-28T10:23:25.507Z,26.07
2019-03-28T10:25:51.488Z,32.60
2019-03-28T10:28:17.487Z,29.47
2019-03-28T10:30:44.011Z,24.07
2019-03-28T10:33:10.208Z,22.30
2019-03-28T10:35:36.200Z,23.40
2019-03-28T10:38:03.104Z,20.30
2019-03-28T10:40:29.110Z,27.37
2019-03-28T10:42:55.128Z,21.30
2019-03-28T10:45:21.588Z,18.27
2019-03-28T10:47:47.600Z,18.53
2019-03-28T10:50:13.594Z,20.50
2019-03-28T10:52:39.632Z,20.33
2019-03-28T10:55:05.913Z,24.10
2019-03-28T10:57:32.283Z,19.10
2019-03-28T10:59:58.981Z,16.40
2019-03-28T11:02:28.507Z,19.60
2019-03-28T11:04:53.145Z,20.03
2019-03-28T11:07:19.452Z,19.37
2019-03-28T11:09:45.456Z,17.23
2019-03-28T11:12:11.447Z,18.93
2019-03-28T11:14:37.461Z,19.53
2019-03-28T11:17:03.709Z,19.50
2019-03-28T11:19:29.737Z,18.40
2019-03-28T11:21:55.963Z,22.67
2019-03-28T11:24:21.983Z,19.90
2019-03-28T11:26:47.989Z,23.77
2019-03-28T11:29:13.980Z,19.77
2019-03-28T11:31:46.122Z,17.40
2019-03-28T11:34:08.432Z,21.40
2019-03-28T11:36:34.468Z,17.83
2019-03-28T11:39:02.833Z,19.83
2019-03-28T11:41:29.524Z,20.73
2019-03-28T11:43:55.554Z,20.63
2019-03-28T11:46:21.559Z,16.77
2019-03-28T11:48:47.866Z,15.03
2019-03-28T11:51:13.859Z,23.53
2019-03-28T11:53:39.900Z,17.00
2019-03-28T11:56:06.251Z,13.53
2019-03-28T11:58:32.242Z,12.37
2019-03-28T12:00:58.496Z,13.83
2019-03-28T12:03:24.510Z,16.67
2019-03-28T12:05:53.018Z,10.87
2019-03-28T12:08:18.400Z,14.17
2019-03-28T12:10:44.402Z,12.93
2019-03-28T12:13:10.395Z,18.03
2019-03-28T12:15:36.392Z,15.50
2019-03-28T12:18:02.484Z,13.23
2019-03-28T12:20:28.491Z,15.13
2019-03-28T12:22:56.105Z,18.73
2019-03-28T12:25:22.316Z,15.30
2019-03-28T12:27:48.312Z,17.97
2019-03-28T12:30:16.369Z,10.30
2019-03-28T12:32:42.637Z,12.87
2019-03-28T12:35:09.234Z,14.67
2019-03-28T12:37:35.287Z,16.17
2019-03-28T12:40:01.639Z,13.07
2019-03-28T12:42:27.636Z,12.23
2019-03-28T12:44:57.129Z,14.97
2019-03-28T12:47:21.547Z,15.07
2019-03-28T12:49:47.759Z,13.07
2019-03-28T12:52:13.770Z,10.43
2019-03-28T12:54:40.048Z,14.23
2019-03-28T12:57:06.052Z,11.23
2019-03-28T12:59:33.709Z,10.50
2019-03-28T13:01:59.913Z,11.27
2019-03-28T13:04:26.192Z,8.13
2019-03-28T13:06:52.208Z,13.03
2019-03-28T13:09:18.191Z,14.60
2019-03-28T13:11:44.560Z,7.60
2019-03-28T13:14:12.028Z,7.33
2019-03-28T13:16:38.045Z,7.03
2019-03-28T13:19:04.280Z,7.13
2019-03-28T13:21:30.512Z,5.23
2019-03-28T13:23:56.507Z,5.93
2019-03-28T13:26:22.513Z,4.93
2019-03-28T13:28:48.504Z,6.53
2019-03-28T13:31:14.504Z,8.13
2019-03-28T13:33:40.508Z,5.67
2019-03-28T13:36:06.513Z,5.73
2019-03-28T13:38:32.509Z,5.50
2019-03-28T13:40:58.511Z,5.23
2019-03-28T13:43:24.520Z,6.67
2019-03-28T13:45:50.536Z,7.37
2019-03-28T13:48:16.528Z,4.20
2019-03-28T13:50:42.536Z,3.73
2019-03-28T13:53:08.540Z,4.07
2019-03-28T13:55:34.760Z,6.50
2019-03-28T13:58:01.997Z,2.93
2019-03-28T14:00:29.696Z,4.30
2019-03-28T14:02:58.729Z,4.53
2019-03-28T14:05:23.865Z,3.47
2019-03-28T14:07:49.867Z,6.03
2019-03-28T14:10:15.872Z,3.50
2019-03-28T14:12:41.964Z,4.10
2019-03-28T14:15:08.069Z,4.70
2019-03-28T14:17:35.084Z,4.23
2019-03-28T14:20:01.296Z,7.17
2019-03-28T14:22:27.286Z,4.07
2019-03-28T14:24:53.288Z,3.73
2019-03-28T14:27:19.306Z,3.20
2019-03-28T14:29:45.649Z,5.73
2019-03-28T14:32:11.652Z,4.37
2019-03-28T14:34:39.835Z,4.30
2019-03-28T14:37:06.085Z,6.00
2019-03-28T14:39:32.106Z,3.03
2019-03-28T14:41:58.344Z,4.50
2019-03-28T14:44:24.652Z,3.03
2019-03-28T14:46:50.668Z,5.03
2019-03-28T14:49:16.808Z,5.23
2019-03-28T14:51:42.955Z,5.37
2019-03-28T14:54:09.060Z,6.80
2019-03-28T14:56:35.452Z,7.37
2019-03-28T14:59:01.962Z,5.50
2019-03-28T15:01:27.952Z,5.07
2019-03-28T15:03:53.960Z,6.40
2019-03-28T15:06:19.984Z,5.20
2019-03-28T15:08:45.969Z,8.83
2019-03-28T15:11:11.956Z,6.07
2019-03-28T15:13:40.462Z,5.33
2019-03-28T15:16:06.452Z,7.07
2019-03-28T15:18:32.457Z,5.33
2019-03-28T15:20:58.439Z,9.27
2019-03-28T15:23:24.728Z,4.93
2019-03-28T15:25:50.959Z,8.57
2019-03-28T15:28:17.005Z,6.97
2019-03-28T15:30:43.003Z,5.70
2019-03-28T15:33:09.468Z,6.03
2019-03-28T15:35:35.460Z,6.27
2019-03-28T15:38:02.281Z,10.03
2019-03-28T15:40:28.284Z,5.13
2019-03-28T15:42:54.560Z,9.43
2019-03-28T15:45:20.580Z,6.07
2019-03-28T15:47:47.104Z,8.47
2019-03-28T15:50:13.403Z,5.47
2019-03-28T15:52:39.405Z,4.33
2019-03-28T15:55:05.484Z,6.60
2019-03-28T15:57:31.500Z,7.60
2019-03-28T15:59:57.500Z,6.57
2019-03-28T16:02:23.544Z,7.97
2019-03-28T16:04:49.813Z,11.07
2019-03-28T16:07:15.815Z,9.67
2019-03-28T16:09:41.814Z,5.70
2019-03-28T16:12:07.812Z,7.80
2019-03-28T16:14:34.117Z,6.87
2019-03-28T16:17:00.112Z,8.47
2019-03-28T16:19:26.099Z,8.87
2019-03-28T16:21:52.092Z,5.80
2019-03-28T16:24:18.097Z,8.13
2019-03-28T16:26:44.088Z,8.10
2019-03-28T16:29:10.284Z,6.73
2019-03-28T16:31:36.586Z,9.37
2019-03-28T16:34:07.203Z,6.77
2019-03-28T16:36:30.470Z,6.57
2019-03-28T16:38:56.461Z,4.90
2019-03-28T16:41:24.023Z,4.83
2019-03-28T16:43:50.244Z,5.50
2019-03-28T16:46:16.652Z,4.70
2019-03-28T16:48:42.651Z,4.10
2019-03-28T16:51:08.654Z,7.37
2019-03-28T16:53:35.608Z,4.47
2019-03-28T16:56:02.029Z,4.20
2019-03-28T16:58:28.369Z,5.50
2019-03-28T17:00:54.596Z,7.97
2019-03-28T17:03:20.604Z,8.20
2019-03-28T17:05:47.217Z,3.13
2019-03-28T17:08:14.715Z,6.60
2019-03-28T17:10:45.886Z,5.13
2019-03-28T17:13:12.888Z,4.63
2019-03-28T17:15:39.135Z,4.03
2019-03-28T17:18:05.145Z,4.63
2019-03-28T17:20:31.128Z,8.23
2019-03-28T17:22:57.143Z,4.90
2019-03-28T17:25:23.148Z,5.43
2019-03-28T17:27:49.466Z,4.60
2019-03-28T17:30:15.466Z,9.90
2019-03-28T17:32:41.454Z,6.60
2019-03-28T17:35:07.452Z,3.97
2019-03-28T17:37:33.447Z,5.20
2019-03-28T17:39:59.448Z,4.23
2019-03-28T17:42:25.465Z,5.53
2019-03-28T17:44:51.472Z,4.70
2019-03-28T17:47:17.483Z,4.67
2019-03-28T17:49:43.481Z,3.40
2019-03-28T17:52:09.480Z,3.20
2019-03-28T17:54:35.480Z,3.37
2019-03-28T17:57:01.748Z,8.30
2019-03-28T17:59:27.752Z,3.47
2019-03-28T18:01:53.756Z,4.77
2019-03-28T18:04:23.206Z,6.87
2019-03-28T18:06:48.320Z,8.03
2019-03-28T18:09:14.530Z,4.10
2019-03-28T18:11:40.534Z,6.20
2019-03-28T18:14:06.788Z,5.47
2019-03-28T18:16:32.792Z,4.53
2019-03-28T18:18:58.850Z,4.77
2019-03-28T18:21:24.910Z,5.63
2019-03-28T18:23:50.900Z,5.13
2019-03-28T18:26:16.901Z,6.87
2019-03-28T18:28:42.909Z,5.03
2019-03-28T18:31:08.900Z,5.53
2019-03-28T18:33:34.903Z,6.03
2019-03-28T18:36:00.904Z,3.87
2019-03-28T18:38:26.904Z,4.73
2019-03-28T18:40:52.930Z,6.27
2019-03-28T18:43:18.926Z,2.97
2019-03-28T18:45:44.936Z,3.53
2019-03-28T18:48:11.390Z,4.53
2019-03-28T18:50:40.956Z,4.07
2019-03-28T18:53:05.871Z,3.53
2019-03-28T18:55:31.873Z,3.80
2019-03-28T18:57:57.892Z,5.40
2019-03-28T19:00:24.223Z,3.57
2019-03-28T19:02:50.446Z,4.43
2019-03-28T19:05:20.125Z,9.50
2019-03-28T19:07:44.348Z,5.10
2019-03-28T19:10:11.239Z,4.67
2019-03-28T19:12:37.860Z,5.97
2019-03-28T19:15:05.460Z,6.73
2019-03-28T19:17:31.461Z,6.07
2019-03-28T19:19:59.535Z,5.60
2019-03-28T19:22:25.456Z,5.40
2019-03-28T19:24:51.469Z,7.83
2019-03-28T19:27:18.721Z,4.60
2019-03-28T19:29:45.020Z,7.90
2019-03-28T19:32:11.031Z,9.40
2019-03-28T19:34:37.092Z,4.77
2019-03-28T19:37:03.084Z,7.00
2019-03-28T19:39:31.282Z,5.43
2019-03-28T19:41:57.302Z,6.57
2019-03-28T19:44:25.825Z,10.90
2019-03-28T19:46:51.324Z,8.10
2019-03-28T19:49:17.321Z,7.33
2019-03-28T19:51:43.318Z,9.13
2019-03-28T19:54:09.902Z,4.33
2019-03-28T19:56:37.695Z,7.93
2019-03-28T19:59:03.739Z,7.40
2019-03-28T20:01:29.962Z,5.63
2019-03-28T20:03:56.217Z,5.83
2019-03-28T20:06:22.735Z,5.73
2019-03-28T20:08:50.408Z,10.33
2019-03-28T20:11:16.472Z,4.07
2019-03-28T20:13:42.601Z,6.67
2019-03-28T20:16:08.604Z,4.60
2019-03-28T20:18:35.805Z,5.97
2019-03-28T20:21:01.935Z,7.50
2019-03-28T20:23:27.950Z,7.00
2019-03-28T20:25:53.955Z,6.67
2019-03-28T20:28:19.940Z,5.70
2019-03-28T20:30:46.268Z,9.20
2019-03-28T20:33:12.600Z,6.93
2019-03-28T20:35:38.613Z,7.50
2019-03-28T20:38:04.612Z,7.67
2019-03-28T20:40:30.618Z,8.60
2019-03-28T20:42:56.620Z,7.77
2019-03-28T20:45:22.712Z,6.10
2019-03-28T20:47:48.720Z,7.40
2019-03-28T20:50:15.233Z,6.83
2019-03-28T20:52:41.614Z,5.40
2019-03-28T20:55:08.174Z,6.73
2019-03-28T20:57:34.188Z,5.83
2019-03-28T21:00:00.339Z,6.77
2019-03-28T21:02:26.480Z,7.93
2019-03-28T21:04:52.482Z,10.93
2019-03-28T21:07:19.201Z,8.87
2019-03-28T21:09:45.184Z,8.23
2019-03-28T21:12:11.176Z,9.47
2019-03-28T21:14:37.184Z,9.53
2019-03-28T21:17:03.179Z,9.47
2019-03-28T21:19:29.175Z,8.53
2019-03-28T21:21:55.270Z,6.47
2019-03-28T21:24:21.367Z,9.50
2019-03-28T21:26:47.356Z,7.47
2019-03-28T21:29:13.356Z,10.97
2019-03-28T21:31:49.125Z,9.47
2019-03-28T21:34:07.302Z,11.20
2019-03-28T21:36:33.448Z,11.83
2019-03-28T21:38:59.462Z,18.33
2019-03-28T21:41:25.439Z,9.73
2019-03-28T21:43:51.813Z,10.33
2019-03-28T21:46:17.811Z,11.83
2019-03-28T21:48:43.828Z,7.47
2019-03-28T21:51:11.517Z,9.43
2019-03-28T21:53:37.712Z,8.57
2019-03-28T21:56:03.988Z,12.13
2019-03-28T21:58:30.116Z,7.80
2019-03-28T22:00:56.792Z,9.47
2019-03-28T22:03:22.780Z,11.60
2019-03-28T22:05:48.784Z,12.10
2019-03-28T22:08:15.032Z,11.53
2019-03-28T22:10:41.437Z,6.93
2019-03-28T22:13:07.656Z,8.53
2019-03-28T22:15:33.663Z,10.33
2019-03-28T22:17:59.653Z,10.20
2019-03-28T22:20:25.647Z,10.30
2019-03-28T22:22:51.892Z,7.27
2019-03-28T22:25:17.892Z,9.10
2019-03-28T22:27:47.188Z,8.13
2019-03-28T22:30:13.317Z,10.33
2019-03-28T22:32:39.423Z,9.83
2019-03-28T22:35:05.928Z,11.83
2019-03-28T22:37:31.928Z,7.90
2019-03-28T22:39:58.248Z,12.07
2019-03-28T22:42:24.261Z,11.07
2019-03-28T22:44:50.988Z,13.33
2019-03-28T22:47:17.272Z,8.70
2019-03-28T22:49:43.572Z,13.60
2019-03-28T22:52:09.576Z,14.93
2019-03-28T22:54:35.576Z,10.00
2019-03-28T22:57:01.863Z,9.90
2019-03-28T22:59:27.869Z,12.40
2019-03-28T23:01:53.874Z,11.43
2019-03-28T23:04:19.860Z,10.27
2019-03-28T23:06:45.852Z,10.27
2019-03-28T23:09:11.857Z,16.00
2019-03-28T23:11:40.424Z,11.53
2019-03-28T23:14:05.803Z,10.47
2019-03-28T23:16:31.911Z,9.63
2019-03-28T23:18:57.904Z,9.43
2019-03-28T23:21:23.942Z,12.40
2019-03-28T23:23:49.949Z,11.40
2019-03-28T23:26:15.944Z,10.07
2019-03-28T23:28:41.947Z,11.97
2019-03-28T23:31:07.940Z,19.60
2019-03-28T23:33:33.940Z,9.20
2019-03-28T23:35:59.933Z,13.43
2019-03-28T23:38:25.993Z,11.47
2019-03-28T23:40:51.990Z,10.67
2019-03-28T23:43:18.001Z,14.50
2019-03-28T23:45:44.284Z,11.27
2019-03-28T23:48:10.307Z,12.23
2019-03-28T23:50:36.300Z,14.07
2019-03-28T23:53:02.299Z,10.90
2019-03-28T23:55:28.512Z,13.10
2019-03-28T23:57:55.179Z,13.73
